Weather observations for the past three days for
Hayward, Hayward Air Terminal
Metric (Imperial)
Date Time (pdt) Wind (kph) Vis. (km) Weather Sky Cond. Temperature (ºC) Relative Humidity Wind Chill (°C) Heat Index (°C) Pressure Precipitation (cm)
Air Dwpt 6 hour altimeter (cm) sea level (mb) 1 hr 3 hr 6 hr
Max. Min.
02 19:54 W 17 12.87 Fair CLR 17.8 13.3 75% 76.2 1016.9
02 18:54 NW 22 14.48 Fair CLR 18.9 12.8 68% 76.23 1017.2
02 17:54 W 24 G 37 16.09 Fair CLR 20.6 12.8 61% 76.23 1017.2
02 16:54 W 28 G 44 16.09 A Few Clouds FEW028 21.1 12.2 22.8 21.1 57% 76.25 1017.3
02 15:54 W 24 16.09 A Few Clouds FEW028 21.7 13.3 59% 76.28 1017.6
02 13:54 W 24 G 33 16.09 Partly Cloudy FEW037 SCT060 21.7 14.4 63% 76.33 1018.3
02 12:54 W 22 14.48 A Few Clouds FEW055 21.7 15 66% 76.35 1018.6
02 11:54 W 17 16.09 Partly Cloudy FEW040 SCT065 22.8 13.9 57% 76.33 1018.5
02 10:54 S 11 16.09 Mostly Cloudy BKN031 BKN050 21.7 12.8 21.7 15.6 57% 76.33 1018.5
02 09:54 S 13 16.09 Mostly Cloudy BKN029 20.6 12.2 59% 76.3 1018.2
02 08:54 SE 11 12.87 Partly Cloudy SCT042 SCT070 17.8 11.1 65% 76.3 1018.1
02 07:54 SE 13 12.87 A Few Clouds FEW047 16.1 11.1 72% 76.28 1017.7
02 06:54 SE 11 16.09 Overcast BKN046 OVC055 16.1 11.1 72% 76.25 1017.5
02 05:54 SE 11 14.48 Overcast OVC045 16.1 11.7 75% 76.23 1017.2
02 03:54 E 6 12.87 Fair CLR 15 12.2 83% 76.25 1017.4
02 02:54 E 9 12.87 Fair CLR 15 12.2 83% 76.25 1017.3
02 01:54 E 7 12.87 Fair CLR 15.6 12.2 80% 76.25 1017.4
02 00:54 NE 6 12.87 Fair CLR 16.1 12.8 81% 76.28 1017.6
01 23:54 Calm 14.48 Fair CLR 16.7 13.3 80% 76.25 1017.5
01 22:54 Calm 12.87 Fair CLR 16.7 13.3 21.7 16.7 80% 76.25 1017.4
01 21:54 SW 7 14.48 Fair CLR 17.2 13.3 78% 76.28 1017.9
01 20:54 W 9 14.48 Fair CLR 17.8 12.8 73% 76.28 1017.6
01 19:54 W 11 14.48 Fair CLR 18.3 12.2 68% 76.23 1017.2
01 18:54 W 17 16.09 A Few Clouds FEW015 19.4 10.6 57% 76.2 1016.8
01 17:54 W 20 16.09 A Few Clouds FEW015 20.6 10.6 53% 76.17 1016.6
01 16:54 W 20 16.09 A Few Clouds FEW045 21.1 10 21.7 18.9 49% 76.2 1016.6
01 15:54 W 24 16.09 A Few Clouds FEW049 21.1 8.3 44% 76.23 1016.9
01 14:54 W 17 16.09 Partly Cloudy SCT050 21.7 8.3 42% 76.23 1017.1
01 13:54 W 20 16.09 Partly Cloudy SCT050 21.1 9.4 47% 76.23 1017.1
01 12:54 SW 11 16.09 Mostly Cloudy BKN050 20 8.9 49% 76.25 1017.6
01 11:54 SW 9 16.09 Overcast OVC048 19.4 8.9 51% 76.28 1017.8
01 10:54 SW 13 16.09 Overcast OVC043 18.9 10 19.4 17.2 56% 76.28 1017.7
01 09:54 SW 13 16.09 Overcast OVC045 18.9 10 56% 76.23 1017.2
01 08:54 W 15 14.48 Overcast OVC044 18.3 10.6 61% 76.2 1016.9
01 07:54 SW 13 14.48 Overcast OVC042 17.2 11.1 68% 76.17 1016.3
01 06:54 SW 11 14.48 Overcast OVC037 17.2 10.6 65% 76.1 1015.5
01 05:54 SW 13 16.09 Overcast OVC038 17.2 10.6 65% 76.07 1015.1
01 04:54 SW 11 16.09 Overcast OVC039 17.2 10.6 17.2 16.7 65% 76.05 1014.8
01 03:54 SW 17 16.09 Overcast OVC035 17.2 10.6 65% 76.07 1015.1
01 02:54 SW 11 16.09 Overcast OVC034 17.2 10.6 65% 76.07 1014.9
01 01:54 SW 13 16.09 Overcast OVC032 17.2 10 63% 76.07 1015.0
01 00:54 W 13 14.48 Overcast OVC030 17.2 10 63% 76.07 1015.0
31 23:54 SW 15 14.48 Overcast OVC030 17.2 10.6 65% 76.07 1015.0
31 22:54 W 17 14.48 Overcast OVC029 17.2 10.6 18.9 16.7 65% 76.1 1015.4
31 21:54 W 17 14.48 Overcast OVC026 16.7 10.6 67% 76.07 1015.2
31 20:54 W 17 14.48 Overcast OVC026 16.7 10.6 67% 76.05 1014.9
31 19:54 W 19 12.87 Mostly Cloudy BKN026 16.7 10.6 67% 76.02 1014.4
31 18:54 W 17 12.87 Mostly Cloudy BKN025 17.2 11.1 68% 76.02 1014.3
31 17:54 W 20 G 33 12.87 Overcast OVC024 18.3 11.7 66% 76.02 1014.2
31 16:54 W 22 12.87 Mostly Cloudy BKN025 18.9 11.7 19.4 16.7 63% 76.02 1014.3
31 15:54 W 20 12.87 Mostly Cloudy BKN026 18.9 12.2 65% 76.05 1014.7
31 14:54 NW 20 12.87 Overcast OVC025 18.3 12.8 70% 76.07 1015.2
31 13:54 W 19 12.87 Overcast OVC025 17.8 12.2 70% 76.12 1015.8
31 12:54 W 19 12.87 Overcast OVC022 17.8 12.2 70% 76.12 1015.7
31 11:54 W 13 12.87 Overcast OVC022 17.2 12.2 73% 76.15 1016.1
31 10:54 W 15 11.27 Overcast SCT014 OVC023 16.7 12.8 16.7 15 78% 76.15 1016.1
31 09:54 SW 13 11.27 Overcast OVC018 16.1 11.7 75% 76.12 1015.8
31 08:54 SW 13 12.87 Overcast OVC017 15.6 11.7 78% 76.1 1015.3
31 07:54 W 15 11.27 Overcast OVC016 15.6 11.7 78% 76.07 1015.2
31 06:54 SW 17 12.87 Overcast OVC019 15.6 11.1 75% 76.02 1014.3
31 05:54 SW 15 12.87 Overcast OVC019 15 11.1 78% 76 1014.1
31 04:54 SW 13 11.27 Overcast OVC017 15 11.7 15 14.4 81% 75.97 1013.7
31 03:54 SW 13 11.27 Overcast OVC019 15 11.7 81% 75.97 1013.6
31 02:54 SW 6 11.27 Mostly Cloudy BKN018 14.4 11.7 84% 75.95 1013.4
31 01:54 W 7 11.27 A Few Clouds FEW013 14.4 12.2 87% 75.95 1013.5
31 00:54 W 9 11.27 Mostly Cloudy BKN014 15 12.2 83% 75.97 1013.8
30 23:54 NW 9 11.27 A Few Clouds FEW013 14.4 12.2 87% 75.97 1013.7
30 22:54 W 13 11.27 Fair CLR 15 12.2 21.1 14.4 83% 75.97 1013.8
30 21:54 N 9 11.27 Fair CLR 15 12.2 83% 76 1014.0
30 20:54 NW 13 11.27 Fair CLR 15 12.2 83% 75.95 1013.6
Date Time (pdt) Wind (kph) Vis. (km) Weather Sky Cond. Air Dwpt Max. Min. Relative Humidity Wind Chill (°C) Heat Index (°C) altimeter (cm) sea level (mb) 1 hr 3 hr 6 hr
6 hour
Temperature (ºC) Pressure Precipitation (cm)